Time;durP1;ratioP1;P1;durP2;ratioP2;P2;SDS_P1;SDS_P2;PMS_P1;PMS_P2;Temp;Humidity;BMP_temperature;BMP_pressure;BME280_temperature;BME280_humidity;BME280_pressure;Samples;Min_cycle;Max_cycle;Signal;HPM_P1;HPM_P2
2021/06/26 00:02:11;;;;;;;5.45;4.13;;;;;;;;;;5090856;28;20067;-71
2021/06/26 00:04:38;;;;;;;6.68;4.70;;;;;;;;;;5091587;28;20099;-72
2021/06/26 00:07:03;;;;;;;6.18;4.32;;;;;;;;;;5094193;28;20026;-71
2021/06/26 00:09:29;;;;;;;5.90;4.38;;;;;;;;;;5094076;28;20024;-72
2021/06/26 00:11:54;;;;;;;5.18;4.40;;;;;;;;;;5090556;28;20024;-72
2021/06/26 00:14:20;;;;;;;5.32;3.95;;;;;;;;;;5091332;28;20024;-72
2021/06/26 00:16:45;;;;;;;5.45;4.43;;;;;;;;;;5090537;28;20497;-71
2021/06/26 00:19:11;;;;;;;5.35;4.32;;;;;;;;;;5091980;28;20073;-72
2021/06/26 00:21:37;;;;;;;5.47;4.57;;;;;;;;;;5092498;28;20024;-72
2021/06/26 00:24:02;;;;;;;4.82;3.90;;;;;;;;;;5092210;28;20467;-71
2021/06/26 00:26:28;;;;;;;5.45;4.13;;;;;;;;;;5090659;28;20058;-72
2021/06/26 00:28:54;;;;;;;4.55;3.60;;;;;;;;;;5090784;28;20411;-71
2021/06/26 00:31:20;;;;;;;5.32;4.10;;;;;;;;;;5089683;28;20028;-71
2021/06/26 00:33:46;;;;;;;4.93;4.20;;;;;;;;;;5092223;28;20107;-72
2021/06/26 00:36:11;;;;;;;4.70;4.20;;;;;;;;;;5091959;28;20020;-69
2021/06/26 00:38:37;;;;;;;5.10;4.53;;;;;;;;;;5092470;28;20069;-69
2021/06/26 00:41:04;;;;;;;5.18;4.25;;;;;;;;;;5092502;28;20031;-72
2021/06/26 00:43:30;;;;;;;6.38;4.28;;;;;;;;;;5092355;28;20024;-72
2021/06/26 00:45:59;;;;;;;6.00;4.80;;;;;;;;;;5092152;28;20039;-72
2021/06/26 00:48:25;;;;;;;7.00;4.35;;;;;;;;;;5092686;28;20078;-72
2021/06/26 00:50:51;;;;;;;5.00;4.45;;;;;;;;;;5094742;28;20028;-72
2021/06/26 00:53:16;;;;;;;5.32;4.57;;;;;;;;;;5096648;28;20385;-72
2021/06/26 00:55:52;;;;;;;5.97;5.10;;;;;;;;;;5096326;28;20050;-72
2021/06/26 00:58:18;;;;;;;6.22;5.07;;;;;;;;;;5096676;28;20028;-72
2021/06/26 01:00:44;;;;;;;7.93;5.47;;;;;;;;;;5096352;28;20048;-71
2021/06/26 01:03:09;;;;;;;7.30;4.85;;;;;;;;;;5095658;28;20086;-72
2021/06/26 01:05:35;;;;;;;6.40;5.40;;;;;;;;;;5096416;28;20024;-72
2021/06/26 01:08:00;;;;;;;5.50;4.68;;;;;;;;;;5102470;28;20417;-72
2021/06/26 01:10:27;;;;;;;6.03;5.20;;;;;;;;;;5096158;28;20028;-71
2021/06/26 01:12:53;;;;;;;6.22;5.15;;;;;;;;;;5095336;28;20078;-71
2021/06/26 01:15:19;;;;;;;6.22;5.20;;;;;;;;;;5095014;28;20024;-71
2021/06/26 01:17:45;;;;;;;8.27;5.25;;;;;;;;;;5094389;28;20024;-72
2021/06/26 01:20:12;;;;;;;6.03;4.82;;;;;;;;;;5094043;28;20024;-71
2021/06/26 01:22:46;;;;;;;7.72;5.30;;;;;;;;;;5094071;28;20395;-72
2021/06/26 01:25:14;;;;;;;6.72;5.55;;;;;;;;;;5092828;28;20024;-72
2021/06/26 01:27:41;;;;;;;6.97;5.80;;;;;;;;;;5094531;28;20016;-72
2021/06/26 01:30:08;;;;;;;5.97;5.20;;;;;;;;;;5093667;28;20032;-71
2021/06/26 01:32:34;;;;;;;6.88;5.90;;;;;;;;;;5094224;28;20388;-71
2021/06/26 01:34:59;;;;;;;7.25;5.78;;;;;;;;;;5099604;28;20026;-72
2021/06/26 01:37:25;;;;;;;7.40;5.65;;;;;;;;;;5114305;28;20034;-72
2021/06/26 01:39:51;;;;;;;7.50;5.55;;;;;;;;;;5093769;28;20165;-72
2021/06/26 01:42:16;;;;;;;7.35;5.53;;;;;;;;;;5094325;28;20471;-72
2021/06/26 01:44:41;;;;;;;7.43;5.45;;;;;;;;;;5093888;28;20016;-72
2021/06/26 01:47:08;;;;;;;9.13;5.22;;;;;;;;;;5093514;28;20093;-72
2021/06/26 01:49:36;;;;;;;9.55;4.90;;;;;;;;;;5093939;28;20031;-71
2021/06/26 01:52:03;;;;;;;7.80;5.10;;;;;;;;;;5093242;28;20052;-72
2021/06/26 01:54:28;;;;;;;9.18;6.05;;;;;;;;;;5093649;28;20028;-71
2021/06/26 01:56:54;;;;;;;10.50;6.57;;;;;;;;;;5093468;28;20024;-72
2021/06/26 01:59:19;;;;;;;8.65;6.32;;;;;;;;;;5093426;28;20086;-72
2021/06/26 02:01:45;;;;;;;7.68;5.47;;;;;;;;;;5092538;28;20047;-72
2021/06/26 02:04:10;;;;;;;9.80;6.45;;;;;;;;;;5093241;28;20085;-72
2021/06/26 02:06:36;;;;;;;9.15;6.65;;;;;;;;;;5093759;28;20023;-71
2021/06/26 02:09:02;;;;;;;9.43;6.28;;;;;;;;;;5100109;28;20032;-72
2021/06/26 02:11:28;;;;;;;7.95;6.15;;;;;;;;;;5092995;28;20028;-72
2021/06/26 02:13:53;;;;;;;7.80;5.63;;;;;;;;;;5091882;28;20027;-71
2021/06/26 02:16:18;;;;;;;7.43;5.63;;;;;;;;;;5094360;28;20024;-72
2021/06/26 02:18:45;;;;;;;10.07;6.03;;;;;;;;;;5094729;28;20020;-71
2021/06/26 02:21:10;;;;;;;9.02;5.45;;;;;;;;;;5094411;28;20506;-72
2021/06/26 02:23:39;;;;;;;10.05;6.38;;;;;;;;;;5093362;28;20020;-71
2021/06/26 02:26:05;;;;;;;10.35;6.53;;;;;;;;;;5093795;28;20032;-71
2021/06/26 02:28:30;;;;;;;11.60;6.30;;;;;;;;;;5094701;28;20430;-71
2021/06/26 02:30:56;;;;;;;9.00;6.15;;;;;;;;;;5093238;28;20024;-71
2021/06/26 02:33:21;;;;;;;11.45;6.57;;;;;;;;;;5092795;28;20388;-71
2021/06/26 02:35:47;;;;;;;8.60;5.57;;;;;;;;;;5105237;28;20027;-71
2021/06/26 02:38:12;;;;;;;8.35;6.13;;;;;;;;;;5105049;28;20024;-71
2021/06/26 02:40:38;;;;;;;12.02;7.05;;;;;;;;;;5092599;28;20361;-71
2021/06/26 02:43:03;;;;;;;11.60;7.68;;;;;;;;;;5092598;28;20048;-71
2021/06/26 02:45:29;;;;;;;9.38;7.10;;;;;;;;;;5092502;28;20031;-71
2021/06/26 02:47:54;;;;;;;10.25;7.03;;;;;;;;;;5092576;28;20444;-70
2021/06/26 02:50:20;;;;;;;11.23;7.60;;;;;;;;;;5092035;28;20034;-71
2021/06/26 02:52:46;;;;;;;10.27;6.45;;;;;;;;;;5092524;28;20118;-71
2021/06/26 02:55:12;;;;;;;11.85;8.05;;;;;;;;;;5090865;28;20363;-71
2021/06/26 02:57:38;;;;;;;11.23;7.40;;;;;;;;;;5093851;28;20031;-72
2021/06/26 03:00:08;;;;;;;12.38;7.68;;;;;;;;;;5092937;28;20407;-73
2021/06/26 03:02:34;;;;;;;9.90;6.90;;;;;;;;;;5092413;28;20024;-72
2021/06/26 03:04:59;;;;;;;10.50;6.10;;;;;;;;;;5092176;28;20024;-71
2021/06/26 03:07:25;;;;;;;9.05;6.18;;;;;;;;;;5096964;28;20386;-72
2021/06/26 03:09:51;;;;;;;11.85;6.47;;;;;;;;;;5091842;28;20111;-72
2021/06/26 03:12:16;;;;;;;8.60;6.00;;;;;;;;;;5091667;28;20031;-72
2021/06/26 03:14:42;;;;;;;9.57;6.20;;;;;;;;;;5092350;28;20024;-72
2021/06/26 03:17:07;;;;;;;10.27;6.60;;;;;;;;;;5092164;28;20046;-71
2021/06/26 03:19:33;;;;;;;12.35;7.25;;;;;;;;;;5092376;28;20080;-72
2021/06/26 03:21:59;;;;;;;10.25;5.95;;;;;;;;;;5092710;28;20047;-72
2021/06/26 03:24:24;;;;;;;9.13;5.72;;;;;;;;;;5092423;28;20024;-72
2021/06/26 03:26:50;;;;;;;10.93;5.97;;;;;;;;;;5091728;28;20031;-72
2021/06/26 03:29:15;;;;;;;10.20;5.97;;;;;;;;;;5091654;28;20161;-72
2021/06/26 03:31:41;;;;;;;11.45;5.72;;;;;;;;;;5091878;28;20396;-69
2021/06/26 03:34:06;;;;;;;9.88;5.00;;;;;;;;;;5092432;28;20023;-69
2021/06/26 03:36:32;;;;;;;8.75;5.35;;;;;;;;;;5098643;28;20051;-69
2021/06/26 03:38:57;;;;;;;10.23;5.35;;;;;;;;;;5092893;28;20471;-68
2021/06/26 03:41:26;;;;;;;8.48;4.88;;;;;;;;;;5093675;28;20024;-69
2021/06/26 03:43:53;;;;;;;7.30;4.97;;;;;;;;;;5093383;28;20044;-69
2021/06/26 03:46:19;;;;;;;8.05;5.00;;;;;;;;;;5092622;28;20024;-69
2021/06/26 03:48:45;;;;;;;8.38;5.50;;;;;;;;;;5092236;28;20368;-69
2021/06/26 03:51:10;;;;;;;9.93;5.15;;;;;;;;;;5091251;28;20051;-69
2021/06/26 03:53:36;;;;;;;8.25;5.20;;;;;;;;;;5090989;28;20115;-69
2021/06/26 03:56:01;;;;;;;7.90;4.82;;;;;;;;;;5090871;28;20055;-69
2021/06/26 03:58:27;;;;;;;12.60;4.53;;;;;;;;;;5091453;28;20023;-69
2021/06/26 04:00:55;;;;;;;7.90;4.68;;;;;;;;;;5092016;28;20058;-69
2021/06/26 04:03:22;;;;;;;6.85;5.00;;;;;;;;;;5091575;28;20031;-70
2021/06/26 04:05:47;;;;;;;9.18;5.40;;;;;;;;;;5091175;28;20542;-69
2021/06/26 04:08:13;;;;;;;7.70;5.22;;;;;;;;;;5094369;28;20104;-69
2021/06/26 04:10:40;;;;;;;7.65;5.57;;;;;;;;;;5090738;28;20464;-69
2021/06/26 04:13:06;;;;;;;8.07;5.40;;;;;;;;;;5091005;28;20049;-69
2021/06/26 04:15:32;;;;;;;8.13;5.50;;;;;;;;;;5090211;28;20024;-69
2021/06/26 04:17:58;;;;;;;8.70;5.25;;;;;;;;;;5089226;28;20020;-69
2021/06/26 04:20:23;;;;;;;9.63;6.00;;;;;;;;;;5091442;28;20031;-69
2021/06/26 04:22:49;;;;;;;16.00;6.43;;;;;;;;;;5091251;28;20016;-69
2021/06/26 04:25:15;;;;;;;8.05;5.78;;;;;;;;;;5090695;28;20369;-69
2021/06/26 04:27:41;;;;;;;8.07;5.18;;;;;;;;;;5091128;28;20038;-69
2021/06/26 04:30:08;;;;;;;9.63;5.53;;;;;;;;;;5090657;28;20107;-69
2021/06/26 04:32:36;;;;;;;7.13;4.93;;;;;;;;;;5090879;28;20432;-69
2021/06/26 04:35:03;;;;;;;9.68;5.22;;;;;;;;;;5096800;28;20458;-69
2021/06/26 04:37:30;;;;;;;12.90;5.53;;;;;;;;;;5091003;28;20020;-69
2021/06/26 04:39:55;;;;;;;10.65;5.55;;;;;;;;;;5090699;28;20036;-69
2021/06/26 04:42:21;;;;;;;12.07;5.78;;;;;;;;;;5090680;28;20065;-68
2021/06/26 04:44:47;;;;;;;10.38;5.10;;;;;;;;;;5090994;28;20104;-68
2021/06/26 04:47:12;;;;;;;9.50;5.13;;;;;;;;;;5090579;28;20047;-69
2021/06/26 04:49:38;;;;;;;8.82;5.93;;;;;;;;;;5090484;28;20386;-68
2021/06/26 04:52:04;;;;;;;13.00;6.38;;;;;;;;;;5090527;28;20024;-68
2021/06/26 04:54:30;;;;;;;8.40;5.50;;;;;;;;;;5090851;28;20085;-68
2021/06/26 04:56:56;;;;;;;9.10;6.13;;;;;;;;;;5090399;28;20032;-70
2021/06/26 04:59:21;;;;;;;8.68;5.88;;;;;;;;;;5090157;28;20036;-70
2021/06/26 05:01:47;;;;;;;9.55;5.63;;;;;;;;;;5089265;28;20048;-70
2021/06/26 05:04:12;;;;;;;12.75;5.72;;;;;;;;;;5084429;28;20065;-70
2021/06/26 05:06:38;;;;;;;9.05;5.47;;;;;;;;;;5090297;28;20052;-70
2021/06/26 05:09:04;;;;;;;11.00;6.57;;;;;;;;;;5094324;28;20028;-71
2021/06/26 05:11:30;;;;;;;9.82;5.65;;;;;;;;;;5090397;28;20239;-71
2021/06/26 05:13:55;;;;;;;10.90;5.90;;;;;;;;;;5090232;28;20028;-70
2021/06/26 05:16:21;;;;;;;9.75;5.85;;;;;;;;;;5089890;28;20089;-70
2021/06/26 05:18:46;;;;;;;13.43;6.47;;;;;;;;;;5090120;28;20095;-70
2021/06/26 05:21:12;;;;;;;13.70;6.57;;;;;;;;;;5089378;28;20020;-70
2021/06/26 05:23:37;;;;;;;13.68;6.30;;;;;;;;;;5089120;28;20081;-69
2021/06/26 05:26:03;;;;;;;11.35;6.63;;;;;;;;;;5090416;28;20031;-70
2021/06/26 05:28:29;;;;;;;11.13;6.70;;;;;;;;;;5090436;28;20391;-70
2021/06/26 05:30:55;;;;;;;14.30;6.85;;;;;;;;;;5090366;28;20027;-71
2021/06/26 05:33:20;;;;;;;13.32;6.82;;;;;;;;;;5090345;28;20110;-71
2021/06/26 05:35:46;;;;;;;13.80;6.70;;;;;;;;;;5104237;28;20450;-70
2021/06/26 05:38:12;;;;;;;11.27;6.55;;;;;;;;;;5099798;28;20468;-70
2021/06/26 05:40:37;;;;;;;7.60;5.10;;;;;;;;;;5095795;28;20028;-70
2021/06/26 05:43:03;;;;;;;10.18;4.82;;;;;;;;;;5094919;28;20049;-70
2021/06/26 05:45:29;;;;;;;6.80;4.70;;;;;;;;;;5095716;28;20034;-71
2021/06/26 05:47:56;;;;;;;9.63;5.05;;;;;;;;;;5095448;28;20478;-71
2021/06/26 05:50:21;;;;;;;6.25;4.25;;;;;;;;;;5095702;28;20051;-70
2021/06/26 05:52:55;;;;;;;6.32;3.90;;;;;;;;;;5095338;28;20028;-70
2021/06/26 05:55:22;;;;;;;;;;;;;;;;;;5075618;28;20028;-69
2021/06/26 05:57:48;;;;;;;7.97;4.60;;;;;;;;;;5075361;28;19950;-70
2021/06/26 06:00:16;;;;;;;7.57;4.22;;;;;;;;;;5079155;28;20500;-69
2021/06/26 06:02:42;;;;;;;7.53;4.60;;;;;;;;;;5095536;28;20047;-69
2021/06/26 06:05:08;;;;;;;8.70;4.60;;;;;;;;;;5095040;28;20444;-69
2021/06/26 06:07:40;;;;;;;5.47;3.97;;;;;;;;;;5097247;28;20150;-69
2021/06/26 06:10:07;;;;;;;6.50;4.47;;;;;;;;;;5095010;28;20028;-69
2021/06/26 06:12:34;;;;;;;7.60;5.22;;;;;;;;;;5095086;28;20024;-68
2021/06/26 06:15:00;;;;;;;7.45;5.07;;;;;;;;;;5093652;28;20051;-69
2021/06/26 06:17:26;;;;;;;6.32;4.80;;;;;;;;;;5092770;28;20027;-68
2021/06/26 06:19:51;;;;;;;5.22;4.00;;;;;;;;;;5093354;28;20020;-68
2021/06/26 06:22:17;;;;;;;6.35;4.10;;;;;;;;;;5093041;28;20018;-69
2021/06/26 06:24:43;;;;;;;6.68;4.60;;;;;;;;;;5092863;28;20118;-68
2021/06/26 06:27:08;;;;;;;4.50;3.97;;;;;;;;;;5093166;28;20016;-69
2021/06/26 06:29:34;;;;;;;5.82;3.33;;;;;;;;;;5092755;28;20550;-69
2021/06/26 06:31:59;;;;;;;6.90;3.83;;;;;;;;;;5093176;28;20067;-69
2021/06/26 06:34:25;;;;;;;9.30;3.80;;;;;;;;;;5093464;28;20032;-68
2021/06/26 06:36:50;;;;;;;5.72;4.13;;;;;;;;;;5113665;28;20498;-69
2021/06/26 06:39:16;;;;;;;7.50;4.30;;;;;;;;;;5095578;28;20081;-68
2021/06/26 06:41:41;;;;;;;5.65;4.10;;;;;;;;;;5094660;28;20027;-68
2021/06/26 06:44:07;;;;;;;5.07;3.83;;;;;;;;;;5093990;28;20031;-68
2021/06/26 06:46:32;;;;;;;5.93;4.28;;;;;;;;;;5094503;28;20498;-68
2021/06/26 06:48:59;;;;;;;5.95;4.50;;;;;;;;;;5092368;28;20050;-69
2021/06/26 06:51:24;;;;;;;5.30;4.28;;;;;;;;;;5093426;28;20089;-68
2021/06/26 06:53:50;;;;;;;4.88;3.72;;;;;;;;;;5093979;28;20024;-69
2021/06/26 06:56:15;;;;;;;3.97;3.50;;;;;;;;;;5094069;28;20483;-68
2021/06/26 06:58:41;;;;;;;6.00;3.80;;;;;;;;;;5093839;28;20528;-68
2021/06/26 07:01:06;;;;;;;6.40;4.05;;;;;;;;;;5093654;28;20024;-69
2021/06/26 07:03:32;;;;;;;5.30;3.33;;;;;;;;;;5093019;28;20075;-68
2021/06/26 07:05:57;;;;;;;4.78;3.53;;;;;;;;;;5094487;28;20482;-69
2021/06/26 07:08:22;;;;;;;6.32;3.53;;;;;;;;;;5092358;28;20023;-70
2021/06/26 07:10:48;;;;;;;4.78;2.85;;;;;;;;;;5092349;28;20032;-69
2021/06/26 07:13:13;;;;;;;5.00;3.25;;;;;;;;;;5091455;28;20023;-69
2021/06/26 07:15:39;;;;;;;5.30;3.17;;;;;;;;;;5091753;28;20051;-69
2021/06/26 07:18:04;;;;;;;7.03;3.75;;;;;;;;;;5091656;28;20020;-69
2021/06/26 07:20:36;;;;;;;4.78;3.28;;;;;;;;;;5091798;28;20062;-69
2021/06/26 07:23:01;;;;;;;6.45;4.18;;;;;;;;;;5091695;28;20470;-69
2021/06/26 07:25:27;;;;;;;6.72;4.07;;;;;;;;;;5091540;28;20028;-69
2021/06/26 07:27:52;;;;;;;5.82;4.10;;;;;;;;;;5091364;28;20150;-69
2021/06/26 07:30:18;;;;;;;5.80;3.50;;;;;;;;;;5091795;28;20032;-69
2021/06/26 07:32:45;;;;;;;6.18;3.60;;;;;;;;;;5092749;28;20042;-69
2021/06/26 07:35:12;;;;;;;5.10;3.90;;;;;;;;;;5093840;28;20518;-69
2021/06/26 07:37:37;;;;;;;4.72;3.40;;;;;;;;;;5091885;28;20486;-70
2021/06/26 07:40:04;;;;;;;5.25;4.00;;;;;;;;;;5092804;28;20024;-69
2021/06/26 07:42:29;;;;;;;4.43;4.03;;;;;;;;;;5093046;28;20051;-70
2021/06/26 07:44:54;;;;;;;6.10;4.70;;;;;;;;;;5092509;28;20443;-69
2021/06/26 07:47:20;;;;;;;8.32;4.88;;;;;;;;;;5092476;28;20363;-70
2021/06/26 07:49:45;;;;;;;4.95;4.43;;;;;;;;;;5091424;28;20024;-69
2021/06/26 07:52:11;;;;;;;5.65;4.78;;;;;;;;;;5091821;28;20035;-70
2021/06/26 07:54:36;;;;;;;5.75;5.18;;;;;;;;;;5091593;28;20488;-69
2021/06/26 07:57:02;;;;;;;7.30;3.50;;;;;;;;;;5091621;28;20038;-69
2021/06/26 07:59:27;;;;;;;13.23;4.65;;;;;;;;;;5085853;28;20391;-69
2021/06/26 08:01:54;;;;;;;4.05;3.58;;;;;;;;;;5093327;28;20356;-69
2021/06/26 08:04:19;;;;;;;4.65;3.30;;;;;;;;;;5074062;28;20021;-69
2021/06/26 08:06:45;;;;;;;5.20;3.40;;;;;;;;;;5073008;28;20364;-69
2021/06/26 08:09:10;;;;;;;7.07;3.55;;;;;;;;;;5073047;28;20036;-69
2021/06/26 08:11:36;;;;;;;4.53;3.25;;;;;;;;;;5075125;28;20389;-69
2021/06/26 08:14:02;;;;;;;4.10;3.70;;;;;;;;;;5073049;28;20446;-70
2021/06/26 08:16:27;;;;;;;14.18;4.50;;;;;;;;;;5092046;28;20459;-70
2021/06/26 08:18:53;;;;;;;5.72;4.18;;;;;;;;;;5092854;28;20081;-69
2021/06/26 08:21:22;;;;;;;6.40;3.97;;;;;;;;;;5093038;28;20372;-69
2021/06/26 08:23:49;;;;;;;4.88;4.20;;;;;;;;;;5092678;28;20032;-69
2021/06/26 08:26:15;;;;;;;5.78;4.30;;;;;;;;;;5090215;28;20032;-69
2021/06/26 08:28:41;;;;;;;5.95;3.78;;;;;;;;;;5076167;28;20490;-69
2021/06/26 08:31:07;;;;;;;5.25;3.75;;;;;;;;;;5085546;28;20028;-70
2021/06/26 08:33:32;;;;;;;5.20;3.67;;;;;;;;;;5087795;28;20435;-70
2021/06/26 08:35:58;;;;;;;5.40;3.95;;;;;;;;;;5073835;28;20027;-69
2021/06/26 08:38:23;;;;;;;7.13;4.07;;;;;;;;;;5070047;28;20055;-68
2021/06/26 08:40:53;;;;;;;10.50;4.20;;;;;;;;;;5071569;28;20512;-69
2021/06/26 08:43:19;;;;;;;7.30;3.92;;;;;;;;;;5071009;28;20515;-70
2021/06/26 08:45:45;;;;;;;6.40;3.63;;;;;;;;;;5077587;28;20028;-68
2021/06/26 08:48:12;;;;;;;7.22;3.80;;;;;;;;;;5058699;28;20025;-68
2021/06/26 08:50:38;;;;;;;9.80;3.80;;;;;;;;;;5069817;28;20036;-68
2021/06/26 08:53:03;;;;;;;4.97;4.25;;;;;;;;;;5074292;28;20024;-68
2021/06/26 08:55:29;;;;;;;8.85;4.32;;;;;;;;;;5081804;28;20540;-69
2021/06/26 08:57:55;;;;;;;6.40;4.72;;;;;;;;;;5069966;28;20032;-68
2021/06/26 09:00:24;;;;;;;5.90;4.78;;;;;;;;;;5085765;28;20040;-68
2021/06/26 09:02:49;;;;;;;6.93;4.60;;;;;;;;;;5096403;28;20089;-68
2021/06/26 09:05:27;;;;;;;5.10;4.60;;;;;;;;;;5108318;28;20023;-69
2021/06/26 09:07:52;;;;;;;4.45;3.03;;;;;;;;;;5079042;28;20047;-69
2021/06/26 09:10:21;;;;;;;2.75;2.15;;;;;;;;;;5109407;28;20023;-69
2021/06/26 09:12:48;;;;;;;4.00;2.88;;;;;;;;;;5111050;28;20031;-70
2021/06/26 09:15:28;;;;;;;4.63;2.55;;;;;;;;;;5098201;28;20045;-70
2021/06/26 09:17:54;;;;;;;2.90;2.03;;;;;;;;;;5096110;28;20068;-69
2021/06/26 09:20:46;;;;;;;2.60;2.13;;;;;;;;;;5096063;28;20036;-70
2021/06/26 09:23:19;;;;;;;4.35;2.53;;;;;;;;;;5094086;28;20028;-69
2021/06/26 09:25:44;;;;;;;;;;;;;;;;;;5094614;28;20028;-70
2021/06/26 09:28:10;;;;;;;2.58;1.75;;;;;;;;;;5093243;28;19912;-71
2021/06/26 09:30:41;;;;;;;2.90;1.90;;;;;;;;;;5093686;28;20035;-70
2021/06/26 09:33:18;;;;;;;3.05;2.35;;;;;;;;;;5093308;28;20028;-69
2021/06/26 09:35:45;;;;;;;2.92;2.17;;;;;;;;;;5090582;28;20028;-71
2021/06/26 09:38:11;;;;;;;3.30;2.00;;;;;;;;;;5089111;28;21192;-70
2021/06/26 09:40:41;;;;;;;5.40;2.05;;;;;;;;;;5093937;28;20046;-71
2021/06/26 09:43:08;;;;;;;3.97;1.90;;;;;;;;;;5093851;28;20475;-70
2021/06/26 09:45:34;;;;;;;3.15;2.30;;;;;;;;;;5108836;28;20028;-71
2021/06/26 09:48:07;;;;;;;3.90;2.15;;;;;;;;;;5108282;28;20123;-71
2021/06/26 09:50:36;;;;;;;3.22;2.10;;;;;;;;;;5094783;28;20028;-70
2021/06/26 09:53:04;;;;;;;3.55;1.90;;;;;;;;;;5093961;28;20443;-71
2021/06/26 09:55:30;;;;;;;4.13;2.33;;;;;;;;;;5092303;28;20020;-74
2021/06/26 09:58:10;;;;;;;2.75;2.00;;;;;;;;;;5100114;28;20031;-74
2021/06/26 10:00:37;;;;;;;7.28;2.22;;;;;;;;;;5095331;28;20036;-74
2021/06/26 10:03:03;;;;;;;6.47;2.05;;;;;;;;;;5098629;28;20019;-73
2021/06/26 10:05:31;;;;;;;4.60;2.00;;;;;;;;;;5104068;28;20486;-73
2021/06/26 10:08:00;;;;;;;4.65;2.00;;;;;;;;;;5095861;28;20028;-73
2021/06/26 10:10:26;;;;;;;4.35;2.03;;;;;;;;;;5095339;28;20061;-73
2021/06/26 10:12:53;;;;;;;6.03;1.90;;;;;;;;;;5098540;28;20055;-73
2021/06/26 10:15:21;;;;;;;2.60;2.08;;;;;;;;;;5113931;28;20068;-72
2021/06/26 10:17:47;;;;;;;6.53;2.05;;;;;;;;;;5094252;28;20036;-71
2021/06/26 10:20:17;;;;;;;2.65;1.80;;;;;;;;;;5084611;28;20359;-73
2021/06/26 10:22:45;;;;;;;2.30;1.90;;;;;;;;;;5096588;28;20020;-74
2021/06/26 10:25:12;;;;;;;2.38;1.67;;;;;;;;;;5086731;28;20036;-74
2021/06/26 10:27:38;;;;;;;5.22;1.73;;;;;;;;;;5076953;28;20031;-73
2021/06/26 10:30:20;;;;;;;2.60;1.70;;;;;;;;;;5095866;28;20107;-72
2021/06/26 10:32:56;;;;;;;3.00;2.10;;;;;;;;;;5084509;28;20073;-71
2021/06/26 10:35:24;;;;;;;2.92;2.10;;;;;;;;;;5102974;28;20024;-71
2021/06/26 10:38:10;;;;;;;5.68;2.50;;;;;;;;;;5112020;28;20016;-71
2021/06/26 10:40:46;;;;;;;8.50;3.13;;;;;;;;;;5093604;28;20529;-70
2021/06/26 10:43:19;;;;;;;9.27;3.55;;;;;;;;;;5093543;28;20020;-70
2021/06/26 10:45:45;;;;;;;18.75;4.85;;;;;;;;;;5105058;28;20482;-71
2021/06/26 10:48:19;;;;;;;8.32;4.90;;;;;;;;;;5107391;28;20093;-71
2021/06/26 10:50:48;;;;;;;13.23;5.30;;;;;;;;;;5088333;28;20031;-70
2021/06/26 10:53:33;;;;;;;12.02;6.20;;;;;;;;;;5097479;28;20027;-70
2021/06/26 10:56:06;;;;;;;18.90;6.10;;;;;;;;;;5084176;28;20028;-70
2021/06/26 10:58:37;;;;;;;14.13;6.90;;;;;;;;;;5098721;28;20476;-71
2021/06/26 11:01:12;;;;;;;9.98;5.55;;;;;;;;;;5066214;28;20398;-70
2021/06/26 11:03:38;;;;;;;10.38;6.50;;;;;;;;;;5084897;28;20135;-71
2021/06/26 11:06:13;;;;;;;12.90;6.28;;;;;;;;;;5092473;28;20114;-71
2021/06/26 11:08:39;;;;;;;7.25;4.45;;;;;;;;;;5072933;28;20031;-70
2021/06/26 11:11:05;;;;;;;7.93;5.15;;;;;;;;;;5056944;28;20059;-70
2021/06/26 11:13:31;;;;;;;7.90;5.30;;;;;;;;;;5075234;28;20407;-71
2021/06/26 11:16:05;;;;;;;6.93;5.93;;;;;;;;;;5092854;28;20038;-72
2021/06/26 11:18:31;;;;;;;6.15;5.47;;;;;;;;;;5056995;28;20028;-74
2021/06/26 11:20:59;;;;;;;5.50;4.93;;;;;;;;;;5073813;28;20162;-74
2021/06/26 11:23:25;;;;;;;5.75;4.90;;;;;;;;;;5092642;28;20060;-73
2021/06/26 11:25:50;;;;;;;8.48;5.13;;;;;;;;;;5067522;28;20515;-74
2021/06/26 11:28:20;;;;;;;6.75;5.13;;;;;;;;;;5071423;28;20024;-73
2021/06/26 11:31:01;;;;;;;7.32;5.72;;;;;;;;;;5065076;28;20032;-73
2021/06/26 11:33:31;;;;;;;10.65;5.05;;;;;;;;;;5068126;28;20035;-73
2021/06/26 11:35:57;;;;;;;5.80;4.35;;;;;;;;;;5079150;28;20099;-73
2021/06/26 11:38:22;;;;;;;5.78;3.53;;;;;;;;;;5078192;28;20161;-74
2021/06/26 11:40:50;;;;;;;4.63;3.75;;;;;;;;;;5079005;28;20028;-72
2021/06/26 11:43:15;;;;;;;4.80;3.58;;;;;;;;;;5071919;28;20028;-72
2021/06/26 11:45:45;;;;;;;4.15;3.30;;;;;;;;;;5058964;28;20035;-73
2021/06/26 11:48:13;;;;;;;6.53;3.55;;;;;;;;;;5092185;28;20074;-73
2021/06/26 11:50:51;;;;;;;5.05;3.70;;;;;;;;;;5067505;28;20096;-74
2021/06/26 11:53:19;;;;;;;4.78;3.35;;;;;;;;;;5071222;28;20076;-73
2021/06/26 11:56:00;;;;;;;5.20;4.00;;;;;;;;;;5052501;28;20091;-72
2021/06/26 11:58:48;;;;;;;6.57;3.67;;;;;;;;;;5070754;28;20526;-73
2021/06/26 12:01:30;;;;;;;3.55;3.25;;;;;;;;;;5101366;28;20035;-74
2021/06/26 12:04:00;;;;;;;5.55;3.80;;;;;;;;;;5081076;28;20031;-72
2021/06/26 12:06:31;;;;;;;5.55;4.03;;;;;;;;;;5095308;28;20052;-71
2021/06/26 12:08:57;;;;;;;6.20;4.28;;;;;;;;;;5091256;28;20077;-73
2021/06/26 12:11:30;;;;;;;5.00;4.03;;;;;;;;;;5072958;28;20028;-74
2021/06/26 12:14:01;;;;;;;4.78;3.45;;;;;;;;;;5073931;28;20094;-73
2021/06/26 12:16:30;;;;;;;4.85;3.67;;;;;;;;;;5102466;28;20114;-72
2021/06/26 12:19:01;;;;;;;5.55;3.60;;;;;;;;;;5111862;28;20024;-70
2021/06/26 12:21:43;;;;;;;6.80;3.70;;;;;;;;;;5089749;28;20489;-71
2021/06/26 12:24:09;;;;;;;3.47;3.15;;;;;;;;;;5081522;28;20031;-71
2021/06/26 12:26:35;;;;;;;4.63;3.65;;;;;;;;;;5074139;28;20028;-71
2021/06/26 12:29:01;;;;;;;4.25;3.67;;;;;;;;;;5074417;28;20024;-72
2021/06/26 12:31:27;;;;;;;5.75;3.65;;;;;;;;;;5073030;28;20031;-72
2021/06/26 12:34:00;;;;;;;5.18;3.45;;;;;;;;;;5094119;28;20107;-71
2021/06/26 12:36:26;;;;;;;4.18;3.40;;;;;;;;;;5072181;28;20020;-74
2021/06/26 12:38:51;;;;;;;3.70;3.03;;;;;;;;;;5070486;28;20047;-72
2021/06/26 12:41:25;;;;;;;5.57;3.70;;;;;;;;;;5086277;28;20035;-73
2021/06/26 12:43:52;;;;;;;4.30;3.28;;;;;;;;;;5095417;28;20122;-72
2021/06/26 12:46:19;;;;;;;5.47;3.63;;;;;;;;;;5103713;28;20035;-71
2021/06/26 12:49:20;;;;;;;5.38;4.10;;;;;;;;;;5086791;28;20111;-70
2021/06/26 12:51:44;;;;;;;4.97;3.70;;;;;;;;;;5079443;28;20048;-71
2021/06/26 12:54:12;;;;;;;5.78;3.90;;;;;;;;;;5093517;28;20024;-70
2021/06/26 12:56:40;;;;;;;4.28;3.65;;;;;;;;;;5082193;28;20042;-71
2021/06/26 12:59:08;;;;;;;4.38;3.60;;;;;;;;;;5076446;28;20045;-73
2021/06/26 13:01:52;;;;;;;4.88;3.67;;;;;;;;;;5055912;28;20017;-72
2021/06/26 13:04:35;;;;;;;5.30;3.92;;;;;;;;;;5072679;28;20490;-72
2021/06/26 13:07:00;;;;;;;5.47;4.03;;;;;;;;;;5071852;28;20039;-71
2021/06/26 13:09:37;;;;;;;6.03;5.10;;;;;;;;;;5084981;28;20024;-73
2021/06/26 13:12:16;;;;;;;7.70;6.25;;;;;;;;;;5093407;28;20037;-72
2021/06/26 13:14:43;;;;;;;7.50;6.35;;;;;;;;;;5092942;28;20035;-73
2021/06/26 13:17:10;;;;;;;7.90;6.25;;;;;;;;;;5092464;28;20074;-73
2021/06/26 13:19:36;;;;;;;7.32;6.50;;;;;;;;;;5085073;28;20083;-73
2021/06/26 13:22:01;;;;;;;10.77;7.57;;;;;;;;;;5075154;28;20420;-72
2021/06/26 13:24:27;;;;;;;9.43;7.78;;;;;;;;;;5088545;22;20044;-73
2021/06/26 13:26:53;;;;;;;8.93;7.97;;;;;;;;;;5079779;28;20040;-72
2021/06/26 13:29:19;;;;;;;8.73;7.82;;;;;;;;;;5094652;28;20095;-72
2021/06/26 13:31:45;;;;;;;10.15;8.40;;;;;;;;;;5081378;28;20111;-72
2021/06/26 13:34:10;;;;;;;10.35;8.88;;;;;;;;;;5075887;28;20471;-72
2021/06/26 13:36:37;;;;;;;13.35;10.82;;;;;;;;;;5083400;28;20068;-71
2021/06/26 13:39:03;;;;;;;12.32;9.38;;;;;;;;;;5094389;28;20487;-71
2021/06/26 13:41:34;;;;;;;11.30;9.55;;;;;;;;;;5075841;28;20475;-70
2021/06/26 13:43:59;;;;;;;18.42;10.35;;;;;;;;;;5073238;28;20119;-72
2021/06/26 13:46:32;;;;;;;10.02;8.02;;;;;;;;;;5084145;28;20103;-73
2021/06/26 13:48:57;;;;;;;12.15;7.13;;;;;;;;;;5095629;28;20161;-74
2021/06/26 13:51:23;;;;;;;10.80;7.32;;;;;;;;;;5095579;28;20070;-71
2021/06/26 13:53:50;;;;;;;11.80;8.30;;;;;;;;;;5095772;28;20031;-72
2021/06/26 13:56:16;;;;;;;12.00;8.52;;;;;;;;;;5072196;28;20033;-70
2021/06/26 13:58:42;;;;;;;14.05;9.68;;;;;;;;;;5074179;28;20028;-72
2021/06/26 14:01:07;;;;;;;15.75;10.80;;;;;;;;;;5086362;28;20024;-70
2021/06/26 14:03:40;;;;;;;14.48;9.68;;;;;;;;;;5068902;28;20413;-70
2021/06/26 14:06:06;;;;;;;13.57;9.97;;;;;;;;;;5094801;28;20032;-71
2021/06/26 14:08:31;;;;;;;11.73;9.70;;;;;;;;;;5093163;28;20024;-70
2021/06/26 14:11:14;;;;;;;14.70;9.85;;;;;;;;;;5085976;28;20050;-71
2021/06/26 14:13:40;;;;;;;9.75;8.73;;;;;;;;;;5095064;28;20062;-70
2021/06/26 14:16:08;;;;;;;8.68;7.43;;;;;;;;;;5095311;28;20036;-71
2021/06/26 14:18:34;;;;;;;8.18;6.70;;;;;;;;;;5095143;28;20382;-71
2021/06/26 14:20:59;;;;;;;8.02;7.05;;;;;;;;;;5094900;28;20031;-72
2021/06/26 14:23:25;;;;;;;6.70;6.00;;;;;;;;;;5094801;28;20031;-71
2021/06/26 14:25:50;;;;;;;8.73;7.05;;;;;;;;;;5094935;28;20032;-71
2021/06/26 14:28:16;;;;;;;8.30;7.40;;;;;;;;;;5095339;28;20020;-70
2021/06/26 14:30:52;;;;;;;25.88;8.07;;;;;;;;;;5091430;28;20030;-70
2021/06/26 14:33:17;;;;;;;34.78;8.23;;;;;;;;;;5075726;28;20499;-70
2021/06/26 14:35:43;;;;;;;6.72;5.68;;;;;;;;;;5092336;28;20032;-70
2021/06/26 14:38:15;;;;;;;8.15;5.68;;;;;;;;;;5085832;28;20028;-70
2021/06/26 14:40:41;;;;;;;11.63;6.22;;;;;;;;;;5074647;28;20027;-70
2021/06/26 14:43:08;;;;;;;6.57;5.50;;;;;;;;;;5091430;28;20028;-69